Time;durP1;ratioP1;P1;durP2;ratioP2;P2;SDS_P1;SDS_P2;PMS_P1;PMS_P2;Temp;Humidity;BMP_temperature;BMP_pressure;BME280_temperature;BME280_humidity;BME280_pressure;Samples;Min_cycle;Max_cycle;Signal;HPM_P1;HPM_P2
2022/02/15 00:00:23;;;;;;;0.50;0.50;;;;;;;5.55;76.56;96213.91;29395;220;63009;-65
2022/02/15 00:00:54;;;;;;;0.50;0.50;;;;;;;5.54;76.59;96216.91;29395;209;63004;-65
2022/02/15 00:01:25;;;;;;;0.50;0.50;;;;;;;5.54;76.44;96216.91;29395;236;63009;-60
2022/02/15 00:01:56;;;;;;;0.50;0.50;;;;;;;5.53;76.80;96212.63;29395;202;63005;-68
2022/02/15 00:02:27;;;;;;;0.50;0.50;;;;;;;5.56;76.51;96212.84;29395;238;63009;-65
2022/02/15 00:02:59;;;;;;;0.50;0.50;;;;;;;5.57;76.60;96216.34;29395;197;63009;-67
2022/02/15 00:03:33;;;;;;;0.57;0.57;;;;;;;5.58;76.71;96212.56;29394;218;64009;-65
2022/02/15 00:04:14;;;;;;;0.60;0.60;;;;;;;5.55;76.48;96207.75;29394;206;64005;-65
2022/02/15 00:04:45;;;;;;;0.50;0.50;;;;;;;5.53;76.67;96210.72;29395;283;63009;-68
2022/02/15 00:05:17;;;;;;;0.50;0.50;;;;;;;5.54;76.65;96212.34;29395;229;63005;-66
2022/02/15 00:05:48;;;;;;;0.60;0.60;;;;;;;5.55;76.47;96218.50;29395;224;63009;-68
2022/02/15 00:06:19;;;;;;;0.50;0.50;;;;;;;5.54;76.52;96212.34;29395;242;63004;-66
2022/02/15 00:06:50;;;;;;;0.50;0.50;;;;;;;5.54;76.50;96212.34;29395;246;63009;-66
2022/02/15 00:07:21;;;;;;;0.50;0.50;;;;;;;5.54;76.68;96216.91;29395;212;63004;-65
2022/02/15 00:07:53;;;;;;;0.50;0.50;;;;;;;5.49;76.90;96215.06;29395;233;63009;-64
2022/02/15 00:08:26;;;;;;;0.50;0.50;;;;;;;5.48;76.77;96220.72;29396;238;63004;-64
2022/02/15 00:08:58;;;;;;;0.50;0.50;;;;;;;5.45;77.29;96218.56;29394;242;64009;-63
2022/02/15 00:09:29;;;;;;;0.50;0.50;;;;;;;5.44;77.13;96217.75;29395;197;63005;-63
2022/02/15 00:10:02;;;;;;;0.50;0.50;;;;;;;5.42;77.21;96221.81;29373;230;63009;-66
2022/02/15 00:10:34;;;;;;;0.50;0.50;;;;;;;5.42;77.30;96219.13;29395;197;63005;-62
2022/02/15 00:11:05;;;;;;;0.50;0.50;;;;;;;5.43;77.31;96220.72;29395;226;63009;-63
2022/02/15 00:11:36;;;;;;;0.60;0.60;;;;;;;5.47;77.10;96224.47;29395;238;63005;-65
2022/02/15 00:12:09;;;;;;;0.50;0.50;;;;;;;5.46;76.94;96221.00;29395;236;63009;-64
2022/02/15 00:12:41;;;;;;;0.50;0.50;;;;;;;5.48;77.06;96223.41;29395;220;63004;-67
2022/02/15 00:13:16;;;;;;;0.50;0.50;;;;;;;5.48;77.01;96215.34;29394;239;64009;-62
2022/02/15 00:13:50;;;;;;;0.50;0.50;;;;;;;5.45;76.91;96219.38;29395;222;63004;-66
2022/02/15 00:14:21;;;;;;;0.50;0.50;;;;;;;5.46;76.84;96214.81;29395;203;63009;-63
2022/02/15 00:14:52;;;;;;;0.50;0.50;;;;;;;5.50;77.21;96218.56;29395;199;63018;-66
2022/02/15 00:15:23;;;;;;;0.50;0.50;;;;;;;5.51;77.04;96214.78;29395;220;63008;-65
2022/02/15 00:15:54;;;;;;;0.50;0.50;;;;;;;5.52;76.98;96213.69;29395;213;63004;-62
2022/02/15 00:16:26;;;;;;;0.50;0.50;;;;;;;5.50;76.83;96216.66;29395;259;63008;-67
2022/02/15 00:16:58;;;;;;;0.50;0.50;;;;;;;5.49;76.95;96211.56;29395;230;63005;-67
2022/02/15 00:17:29;;;;;;;0.50;0.50;;;;;;;5.50;76.79;96205.09;29395;237;63009;-65
2022/02/15 00:18:00;;;;;;;0.50;0.50;;;;;;;5.50;76.90;96205.91;29395;197;63005;-65
2022/02/15 00:18:32;;;;;;;0.50;0.50;;;;;;;5.49;77.06;96214.25;29394;288;64009;-66
2022/02/15 00:19:03;;;;;;;0.50;0.50;;;;;;;5.49;77.19;96214.25;29395;197;63005;-67
2022/02/15 00:19:34;;;;;;;0.50;0.50;;;;;;;5.47;76.93;96211.03;29395;210;63009;-67
2022/02/15 00:20:07;;;;;;;0.50;0.50;;;;;;;5.48;77.26;96207.25;29395;212;63011;-68
2022/02/15 00:20:41;;;;;;;0.50;0.50;;;;;;;5.50;76.89;96205.09;29395;211;63009;-65
2022/02/15 00:21:12;;;;;;;0.50;0.50;;;;;;;5.49;77.08;96206.97;29395;239;63004;-65
2022/02/15 00:21:43;;;;;;;0.50;0.50;;;;;;;5.48;76.74;96212.63;29395;202;63009;-62
2022/02/15 00:22:15;;;;;;;0.50;0.50;;;;;;;5.46;77.29;96215.59;29395;202;63004;-67
2022/02/15 00:22:46;;;;;;;0.50;0.50;;;;;;;5.49;77.01;96208.88;29395;209;63008;-67
2022/02/15 00:23:17;;;;;;;0.50;0.50;;;;;;;5.51;77.13;96206.72;29395;209;63005;-67
2022/02/15 00:23:48;;;;;;;0.60;0.60;;;;;;;5.50;77.07;96211.28;29394;247;64009;-68
2022/02/15 00:24:19;;;;;;;0.50;0.50;;;;;;;5.55;76.93;96213.13;29395;200;63005;-66
2022/02/15 00:24:50;;;;;;;0.50;0.50;;;;;;;5.55;76.62;96213.13;29395;203;63009;-66
2022/02/15 00:25:22;;;;;;;0.50;0.50;;;;;;;5.54;77.03;96211.53;29395;313;63000;-65
2022/02/15 00:25:53;;;;;;;0.50;0.50;;;;;;;5.52;77.10;96211.00;29373;226;63009;-65
2022/02/15 00:26:24;;;;;;;0.50;0.50;;;;;;;5.50;76.82;96213.16;29395;326;63005;-66
2022/02/15 00:26:55;;;;;;;0.50;0.50;;;;;;;5.45;76.98;96207.81;29395;226;63009;-62
2022/02/15 00:27:27;;;;;;;0.50;0.50;;;;;;;5.43;77.44;96204.59;29395;230;63004;-65
2022/02/15 00:27:58;;;;;;;0.50;0.50;;;;;;;5.41;77.60;96214.81;29395;199;63009;-64
2022/02/15 00:28:29;;;;;;;0.50;0.50;;;;;;;5.39;77.47;96204.34;29395;222;63004;-62
2022/02/15 00:29:01;;;;;;;0.50;0.50;;;;;;;5.38;77.72;96214.28;29394;202;64009;-60
2022/02/15 00:29:32;;;;;;;0.50;0.50;;;;;;;5.42;77.42;96213.75;29395;265;63004;-63
2022/02/15 00:30:04;;;;;;;0.50;0.50;;;;;;;5.42;77.44;96211.06;29394;202;64008;-67
2022/02/15 00:30:35;;;;;;;0.50;0.50;;;;;;;5.44;77.33;96222.34;29395;225;63004;-66
2022/02/15 00:31:07;;;;;;;0.50;0.50;;;;;;;5.45;77.26;96213.19;29395;230;63009;-66
2022/02/15 00:31:38;;;;;;;0.50;0.50;;;;;;;5.43;77.14;96209.97;29395;251;63005;-62
2022/02/15 00:32:09;;;;;;;0.50;0.50;;;;;;;5.42;77.44;96208.34;29395;197;63009;-67
2022/02/15 00:32:41;;;;;;;0.50;0.50;;;;;;;5.45;77.44;96215.88;29395;231;63005;-61
2022/02/15 00:33:13;;;;;;;0.50;0.50;;;;;;;5.45;77.07;96208.62;29395;224;63009;-64
2022/02/15 00:33:44;;;;;;;0.50;0.50;;;;;;;5.45;77.12;96213.19;29395;236;63005;-67
2022/02/15 00:34:15;;;;;;;0.50;0.50;;;;;;;5.42;77.24;96213.75;29395;196;63009;-65
2022/02/15 00:34:47;;;;;;;0.50;0.50;;;;;;;5.39;77.33;96213.22;29394;232;64004;-65
2022/02/15 00:35:18;;;;;;;0.52;0.52;;;;;;;5.38;77.22;96208.91;29395;219;63009;-65
2022/02/15 00:35:49;;;;;;;0.50;0.50;;;;;;;5.36;77.58;96205.69;29395;243;63018;-64
2022/02/15 00:36:21;;;;;;;0.50;0.50;;;;;;;5.35;77.70;96212.16;29394;224;64009;-67
2022/02/15 00:36:53;;;;;;;0.55;0.55;;;;;;;5.35;77.53;96214.03;29395;208;63004;-65
2022/02/15 00:37:24;;;;;;;0.50;0.50;;;;;;;5.33;77.47;96217.00;29395;256;63008;-66
2022/02/15 00:37:55;;;;;;;0.55;0.55;;;;;;;5.33;77.86;96217.00;29395;221;63000;-65
2022/02/15 00:38:26;;;;;;;0.50;0.50;;;;;;;5.33;77.57;96214.31;29395;198;63009;-65
2022/02/15 00:38:57;;;;;;;0.50;0.50;;;;;;;5.31;77.76;96213.78;29395;222;63005;-66
2022/02/15 00:39:29;;;;;;;0.50;0.50;;;;;;;5.31;77.90;96212.97;29395;216;63009;-65
2022/02/15 00:40:02;;;;;;;0.50;0.50;;;;;;;5.30;77.81;96212.16;29395;213;63005;-63
2022/02/15 00:40:33;;;;;;;0.50;0.50;;;;;;;5.33;77.62;96214.31;29395;207;63019;-66
2022/02/15 00:41:07;;;;;;;0.50;0.50;;;;;;;5.33;77.83;96211.63;29395;194;63005;-65
2022/02/15 00:41:38;;;;;;;0.50;0.50;;;;;;;5.32;77.76;96207.31;29394;212;64009;-65
2022/02/15 00:42:09;;;;;;;2.62;2.55;;;;;;;5.31;77.55;96208.41;29395;320;63004;-66
2022/02/15 00:42:41;;;;;;;0.50;0.50;;;;;;;5.28;77.74;96208.94;29395;212;63004;-64
2022/02/15 00:43:16;;;;;;;0.50;0.50;;;;;;;5.29;78.04;96207.88;29395;223;63004;-66
2022/02/15 00:43:47;;;;;;;0.60;0.60;;;;;;;5.27;77.86;96212.72;29395;217;63009;-66
2022/02/15 00:44:19;;;;;;;0.60;0.60;;;;;;;5.29;77.74;96207.88;29395;222;63004;-66
2022/02/15 00:44:51;;;;;;;0.50;0.50;;;;;;;5.29;78.03;96205.19;29394;227;64008;-65
2022/02/15 00:45:22;;;;;;;0.50;0.50;;;;;;;5.29;78.11;96213.25;29395;211;63005;-64
2022/02/15 00:45:53;;;;;;;0.50;0.50;;;;;;;5.27;77.78;96210.03;29395;213;63009;-64
2022/02/15 00:46:24;;;;;;;0.50;0.50;;;;;;;5.25;78.40;96209.50;29395;374;63002;-68
2022/02/15 00:46:56;;;;;;;0.50;0.50;;;;;;;5.26;78.45;96213.78;29371;248;64009;-66
2022/02/15 00:47:27;;;;;;;0.50;0.50;;;;;;;5.23;78.31;96206.28;29395;213;63005;-65
2022/02/15 00:47:58;;;;;;;0.50;0.50;;;;;;;5.22;78.16;96207.34;29395;280;63009;-64
2022/02/15 00:48:30;;;;;;;0.60;0.60;;;;;;;5.23;78.24;96205.47;29395;214;63005;-66
2022/02/15 00:49:01;;;;;;;0.50;0.50;;;;;;;5.23;78.19;96206.28;29395;209;63009;-64
2022/02/15 00:49:33;;;;;;;0.50;0.50;;;;;;;5.22;78.46;96215.41;29395;241;63004;-65
2022/02/15 00:50:07;;;;;;;0.60;0.60;;;;;;;5.22;78.09;96211.94;29395;250;63009;-65
2022/02/15 00:50:38;;;;;;;0.50;0.50;;;;;;;5.20;78.46;96206.81;29395;224;63004;-65
2022/02/15 00:51:10;;;;;;;0.60;0.60;;;;;;;5.19;78.44;96205.25;29395;256;63009;-64
2022/02/15 00:51:41;;;;;;;0.50;0.50;;;;;;;5.20;78.42;96204.13;29394;240;64004;-65
2022/02/15 00:52:12;;;;;;;0.55;0.55;;;;;;;5.19;78.10;96205.25;29395;197;63008;-64
2022/02/15 00:52:43;;;;;;;0.50;0.50;;;;;;;5.19;78.10;96205.25;29394;280;64005;-65
2022/02/15 00:53:15;;;;;;;0.60;0.60;;;;;;;5.19;78.15;96204.44;29395;227;63013;-63
2022/02/15 00:53:46;;;;;;;0.60;0.60;;;;;;;5.20;78.28;96206.03;29395;202;63005;-65
2022/02/15 00:54:17;;;;;;;0.50;0.50;;;;;;;5.20;78.38;96201.44;29395;217;63016;-68
2022/02/15 00:54:48;;;;;;;0.60;0.60;;;;;;;5.21;78.32;96208.44;29395;207;63005;-65
2022/02/15 00:55:20;;;;;;;0.50;0.50;;;;;;;5.31;77.94;96204.91;29395;218;63009;-64
2022/02/15 00:55:51;;;;;;;0.50;0.50;;;;;;;5.33;77.82;96206.25;29395;200;63005;-66
2022/02/15 00:56:22;;;;;;;0.50;0.50;;;;;;;5.34;77.74;96213.22;29395;245;63009;-65
2022/02/15 00:56:53;;;;;;;1.58;1.58;;;;;;;5.31;77.69;96205.72;29395;220;63004;-65
2022/02/15 00:57:25;;;;;;;0.50;0.50;;;;;;;5.29;77.71;96210.56;29395;227;63013;-63
2022/02/15 00:57:57;;;;;;;0.60;0.60;;;;;;;5.29;77.72;96212.44;29394;292;64004;-65
2022/02/15 00:58:28;;;;;;;0.50;0.50;;;;;;;5.29;77.51;96207.88;29395;237;63009;-64
2022/02/15 00:58:59;;;;;;;0.50;0.50;;;;;;;5.30;77.82;96222.94;29394;271;64004;-65
2022/02/15 00:59:30;;;;;;;0.50;0.50;;;;;;;5.29;77.67;96215.94;29395;222;63008;-64
2022/02/15 01:00:02;;;;;;;0.55;0.55;;;;;;;5.28;77.61;96214.31;29395;203;63004;-65
2022/02/15 01:00:34;;;;;;;0.60;0.60;;;;;;;5.27;77.63;96212.72;29395;223;63009;-65
2022/02/15 01:01:05;;;;;;;0.50;0.50;;;;;;;5.24;78.28;96218.66;29394;216;64005;-66
2022/02/15 01:01:37;;;;;;;0.50;0.50;;;;;;;5.23;77.99;96214.34;29395;227;63009;-64
2022/02/15 01:02:08;;;;;;;0.60;0.60;;;;;;;5.24;78.27;96212.47;29395;228;63005;-65
2022/02/15 01:02:41;;;;;;;0.50;0.50;;;;;;;5.23;78.11;96216.22;29395;234;63009;-66
2022/02/15 01:03:12;;;;;;;0.50;0.50;;;;;;;5.21;78.38;96208.44;29395;203;63005;-65
2022/02/15 01:03:43;;;;;;;0.50;0.50;;;;;;;5.24;78.02;96213.25;29395;197;63009;-64
2022/02/15 01:04:15;;;;;;;0.50;0.50;;;;;;;5.27;78.12;96223.47;29395;207;63008;-65
2022/02/15 01:04:46;;;;;;;0.50;0.50;;;;;;;5.30;77.87;96216.75;29395;214;63004;-65
2022/02/15 01:05:17;;;;;;;0.50;0.50;;;;;;;5.28;78.05;96217.00;29394;239;64004;-63
2022/02/15 01:05:48;;;;;;;0.50;0.50;;;;;;;5.27;77.57;96220.78;29395;245;63009;-64
2022/02/15 01:06:19;;;;;;;0.60;0.60;;;;;;;5.24;77.85;96224.03;29394;289;64004;-65
2022/02/15 01:06:52;;;;;;;0.60;0.60;;;;;;;5.22;78.12;96220.00;29395;204;63018;-64
2022/02/15 01:07:23;;;;;;;0.50;0.50;;;;;;;5.19;77.90;96220.56;29395;298;63004;-63
2022/02/15 01:07:55;;;;;;;0.50;0.50;;;;;;;5.18;78.39;96221.66;29395;197;63014;-65
2022/02/15 01:08:27;;;;;;;0.50;0.50;;;;;;;5.16;78.43;96221.94;29394;249;64005;-64
2022/02/15 01:08:59;;;;;;;0.50;0.50;;;;;;;5.16;78.10;96232.69;29395;318;63009;-64
2022/02/15 01:09:30;;;;;;;0.50;0.50;;;;;;;5.15;78.46;96224.88;29395;223;63005;-62
2022/02/15 01:10:02;;;;;;;0.50;0.50;;;;;;;5.17;78.26;96226.22;29395;202;63009;-65
2022/02/15 01:10:34;;;;;;;0.60;0.60;;;;;;;5.16;78.48;96219.22;29395;235;63005;-63
2022/02/15 01:11:05;;;;;;;0.50;0.50;;;;;;;5.15;78.29;96228.37;29395;272;63009;-64
2022/02/15 01:11:38;;;;;;;0.52;0.52;;;;;;;5.15;78.24;96225.69;29395;300;63015;-66
2022/02/15 01:12:10;;;;;;;0.60;0.60;;;;;;;5.15;78.25;96230.25;29395;219;63009;-63
2022/02/15 01:12:42;;;;;;;0.50;0.50;;;;;;;5.09;78.69;96234.84;29395;208;63004;-63
2022/02/15 01:13:13;;;;;;;0.60;0.60;;;;;;;5.04;78.86;96224.09;29394;215;64009;-66
2022/02/15 01:13:45;;;;;;;0.50;0.50;;;;;;;5.07;78.94;96230.81;29395;197;63004;-63
2022/02/15 01:14:18;;;;;;;0.50;0.50;;;;;;;5.05;78.44;96231.91;29395;215;63009;-64
2022/02/15 01:14:49;;;;;;;0.60;0.60;;;;;;;5.07;78.74;96233.50;29395;308;63008;-67
2022/02/15 01:15:21;;;;;;;0.50;0.50;;;;;;;5.05;78.78;96228.41;29395;215;63009;-64
2022/02/15 01:15:52;;;;;;;0.60;0.60;;;;;;;5.03;78.98;96228.69;29395;253;63005;-65
2022/02/15 01:16:23;;;;;;;0.60;0.60;;;;;;;5.00;79.09;96231.91;29373;230;63009;-64
2022/02/15 01:16:54;;;;;;;0.60;0.60;;;;;;;4.98;79.38;96226.00;29395;211;63008;-63
2022/02/15 01:17:25;;;;;;;0.60;0.60;;;;;;;4.95;79.02;96229.22;29394;218;64000;-65
2022/02/15 01:17:57;;;;;;;0.50;0.50;;;;;;;4.96;79.26;96224.66;29395;221;63010;-66
2022/02/15 01:18:28;;;;;;;0.50;0.50;;;;;;;4.96;79.01;96238.09;29395;216;63017;-65
2022/02/15 01:19:00;;;;;;;0.50;0.50;;;;;;;4.96;79.21;96227.34;29395;272;63005;-65
2022/02/15 01:19:31;;;;;;;0.50;0.50;;;;;;;4.97;78.99;96228.97;29373;202;63009;-63
2022/02/15 01:20:03;;;;;;;0.60;0.60;;;;;;;4.96;79.02;96233.53;29395;210;63004;-65
2022/02/15 01:20:34;;;;;;;0.60;0.60;;;;;;;4.96;78.83;96222.78;29394;205;64019;-63
2022/02/15 01:21:06;;;;;;;0.60;0.60;;;;;;;4.97;78.86;96234.34;29394;287;64014;-62
2022/02/15 01:21:38;;;;;;;0.50;0.50;;;;;;;5.00;78.89;96233.78;29395;198;63009;-63
2022/02/15 01:22:09;;;;;;;0.50;0.50;;;;;;;5.01;78.98;96228.16;29395;205;63004;-64
2022/02/15 01:22:41;;;;;;;0.60;0.60;;;;;;;5.03;78.61;96227.87;29395;252;63008;-64
2022/02/15 01:23:12;;;;;;;0.50;0.50;;;;;;;5.03;78.91;96225.19;29395;239;63010;-66
2022/02/15 01:23:44;;;;;;;0.50;0.50;;;;;;;5.01;78.82;96227.34;29395;230;63009;-64
2022/02/15 01:24:15;;;;;;;0.60;0.60;;;;;;;5.01;79.07;96230.03;29395;220;63005;-65
2022/02/15 01:24:47;;;;;;;0.50;0.50;;;;;;;5.03;78.76;96222.50;29395;197;63009;-64
2022/02/15 01:25:18;;;;;;;0.50;0.50;;;;;;;5.03;78.52;96233.25;29394;277;64005;-64
2022/02/15 01:25:51;;;;;;;0.50;0.50;;;;;;;5.00;79.17;96228.41;29395;199;63009;-65
2022/02/15 01:26:22;;;;;;;0.57;0.57;;;;;;;4.98;79.05;96231.38;29395;277;63008;-68
2022/02/15 01:26:54;;;;;;;0.50;0.50;;;;;;;4.98;78.88;96227.87;29395;211;63009;-64
2022/02/15 01:27:25;;;;;;;0.50;0.50;;;;;;;4.99;78.91;96227.59;29395;202;63004;-64
2022/02/15 01:27:59;;;;;;;0.60;0.60;;;;;;;4.98;78.61;96226.00;29373;330;63009;-65
2022/02/15 01:28:34;;;;;;;0.50;0.50;;;;;;;4.98;78.78;96223.31;29373;303;63004;-64
2022/02/15 01:29:05;;;;;;;0.50;0.50;;;;;;;4.98;78.54;96225.19;29395;252;63009;-64
2022/02/15 01:29:36;;;;;;;0.60;0.60;;;;;;;4.97;79.03;96226.28;29373;254;63013;-63
2022/02/15 01:30:09;;;;;;;0.50;0.50;;;;;;;4.96;78.82;96227.34;29373;221;63008;-65
2022/02/15 01:30:41;;;;;;;0.60;0.60;;;;;;;4.95;78.77;96221.16;29371;219;64005;-63
2022/02/15 01:31:12;;;;;;;0.50;0.50;;;;;;;4.95;79.02;96225.72;29394;199;64009;-65
2022/02/15 01:31:43;;;;;;;0.60;0.60;;;;;;;4.95;79.09;96226.53;29395;280;63005;-65
2022/02/15 01:32:14;;;;;;;0.50;0.50;;;;;;;4.94;78.85;96224.12;29373;211;63009;-64
2022/02/15 01:32:47;;;;;;;0.60;0.60;;;;;;;4.93;78.84;96222.50;29373;282;63005;-64
2022/02/15 01:33:19;;;;;;;0.50;0.50;;;;;;;4.91;79.02;96224.66;29395;242;63009;-63
2022/02/15 01:33:50;;;;;;;0.50;0.50;;;;;;;4.90;79.10;96223.06;29394;233;64005;-64
2022/02/15 01:34:22;;;;;;;0.90;0.90;;;;;;;4.88;79.09;96225.22;29395;286;63016;-65
2022/02/15 01:34:53;;;;;;;0.50;0.50;;;;;;;4.87;79.12;96223.59;29394;307;64004;-64
2022/02/15 01:35:24;;;;;;;0.60;0.60;;;;;;;4.87;79.16;96226.28;29395;213;63009;-64
2022/02/15 01:35:55;;;;;;;0.52;0.52;;;;;;;4.88;79.28;96222.53;29395;271;63004;-64
2022/02/15 01:36:27;;;;;;;0.50;0.50;;;;;;;4.88;79.18;96222.53;29395;196;63009;-65
2022/02/15 01:36:58;;;;;;;0.50;0.50;;;;;;;4.89;79.09;96229.50;29395;199;63004;-63
2022/02/15 01:37:29;;;;;;;0.60;0.60;;;;;;;4.88;79.29;96225.22;29395;224;63008;-65
2022/02/15 01:38:00;;;;;;;0.50;0.50;;;;;;;4.87;79.12;96229.78;29395;205;63005;-66
2022/02/15 01:38:32;;;;;;;0.50;0.50;;;;;;;4.87;78.96;96227.09;29395;199;63009;-63
2022/02/15 01:39:03;;;;;;;0.50;0.50;;;;;;;4.85;78.92;96221.19;29394;227;64005;-65
2022/02/15 01:39:38;;;;;;;0.50;0.50;;;;;;;4.86;79.31;96227.38;29395;222;63009;-65
2022/02/15 01:40:10;;;;;;;0.50;0.50;;;;;;;4.85;79.23;96225.78;29395;238;63005;-63
2022/02/15 01:40:42;;;;;;;0.60;0.60;;;;;;;4.86;78.94;96232.75;29373;325;63009;-68
2022/02/15 01:41:13;;;;;;;0.60;0.60;;;;;;;4.84;79.52;96230.34;29394;215;64004;-62
2022/02/15 01:41:45;;;;;;;0.50;0.50;;;;;;;4.84;79.42;96234.94;29395;214;63009;-70
2022/02/15 01:42:18;;;;;;;0.60;0.60;;;;;;;4.91;79.20;96227.34;29395;198;63004;-66
2022/02/15 01:42:49;;;;;;;0.60;0.60;;;;;;;4.90;78.88;96225.75;29395;219;63009;-66
2022/02/15 01:43:21;;;;;;;0.60;0.60;;;;;;;4.90;79.12;96228.44;29373;221;63004;-64
2022/02/15 01:43:52;;;;;;;0.50;0.50;;;;;;;4.94;78.86;96224.94;29373;232;63008;-63
2022/02/15 01:44:23;;;;;;;0.50;0.50;;;;;;;4.94;78.80;96230.31;29395;240;63004;-66
2022/02/15 01:44:55;;;;;;;0.60;0.60;;;;;;;4.95;78.58;96234.59;29395;202;63008;-66
2022/02/15 01:45:27;;;;;;;0.50;0.50;;;;;;;4.92;78.96;96228.97;29395;282;63005;-64
2022/02/15 01:45:58;;;;;;;0.60;0.60;;;;;;;4.90;78.99;96223.06;29395;213;63009;-67
2022/02/15 01:46:29;;;;;;;0.50;0.50;;;;;;;4.88;78.98;96223.31;29394;260;64005;-63
2022/02/15 01:47:01;;;;;;;0.60;0.60;;;;;;;4.88;78.81;96231.41;29395;305;63009;-63
2022/02/15 01:47:32;;;;;;;0.60;0.60;;;;;;;4.88;78.97;96230.59;29373;243;63005;-65
2022/02/15 01:48:05;;;;;;;0.60;0.60;;;;;;;4.88;78.75;96225.22;29395;216;63009;-65
2022/02/15 01:48:37;;;;;;;0.50;0.50;;;;;;;4.86;79.06;96222.78;29394;266;64005;-65
2022/02/15 01:49:08;;;;;;;0.60;0.60;;;;;;;4.86;78.94;96224.69;29395;235;63009;-66
2022/02/15 01:49:39;;;;;;;0.60;0.60;;;;;;;4.85;78.87;96225.78;29395;198;63004;-65
2022/02/15 01:50:11;;;;;;;0.60;0.60;;;;;;;4.85;79.08;96225.78;29373;204;63022;-65
2022/02/15 01:50:43;;;;;;;0.60;0.60;;;;;;;4.86;79.21;96219.31;29395;324;63004;-67
2022/02/15 01:51:16;;;;;;;0.50;0.50;;;;;;;4.87;78.71;96226.28;29394;212;64008;-66
2022/02/15 01:51:47;;;;;;;0.60;0.60;;;;;;;4.88;78.98;96220.63;29395;210;63004;-60
2022/02/15 01:52:20;;;;;;;0.60;0.60;;;;;;;4.90;78.86;96223.06;29395;233;63009;-65
2022/02/15 01:52:52;;;;;;;0.60;0.60;;;;;;;4.89;78.71;96222.25;29395;210;63005;-64
2022/02/15 01:53:23;;;;;;;0.50;0.50;;;;;;;4.90;78.76;96220.37;29394;257;64009;-63
2022/02/15 01:53:55;;;;;;;0.50;0.50;;;;;;;4.88;78.84;96220.63;29394;308;64005;-64
2022/02/15 01:54:26;;;;;;;0.60;0.60;;;;;;;4.87;78.74;96223.59;29395;221;63009;-66
2022/02/15 01:55:00;;;;;;;0.50;0.50;;;;;;;4.87;78.58;96223.59;29394;227;64005;-66
2022/02/15 01:55:32;;;;;;;0.60;0.60;;;;;;;4.85;78.75;96225.78;29373;277;63010;-66
2022/02/15 01:56:06;;;;;;;0.50;0.50;;;;;;;4.82;79.06;96223.62;29373;197;63005;-65
2022/02/15 01:56:37;;;;;;;0.60;0.60;;;;;;;4.80;78.78;96213.16;29395;317;63009;-68
2022/02/15 01:57:10;;;;;;;0.60;0.60;;;;;;;4.85;79.10;96225.78;29395;207;63011;-63
2022/02/15 01:57:42;;;;;;;0.60;0.60;;;;;;;4.84;78.95;96219.59;29373;222;63024;-64
2022/02/15 01:58:13;;;;;;;0.57;0.57;;;;;;;4.84;78.72;96213.41;29373;299;63004;-64
2022/02/15 01:58:45;;;;;;;0.60;0.60;;;;;;;4.83;78.66;96206.44;29373;245;63025;-66
2022/02/15 01:59:19;;;;;;;0.50;0.50;;;;;;;4.82;78.98;96211.00;29373;257;63004;-62
2022/02/15 01:59:54;;;;;;;0.50;0.50;;;;;;;4.82;78.77;96211.00;29373;267;63009;-66
2022/02/15 02:00:26;;;;;;;0.60;0.60;;;;;;;4.81;79.02;96213.97;29371;328;64005;-65
2022/02/15 02:00:57;;;;;;;0.50;0.50;;;;;;;4.81;78.98;96211.28;29373;238;63009;-63
2022/02/15 02:01:29;;;;;;;0.50;0.50;;;;;;;4.80;79.09;96209.66;29373;203;63005;-66
2022/02/15 02:02:04;;;;;;;0.60;0.60;;;;;;;4.82;78.78;96215.56;29373;269;63009;-63
2022/02/15 02:02:35;;;;;;;0.60;0.60;;;;;;;4.82;78.93;96213.69;29373;319;63005;-62
2022/02/15 02:03:06;;;;;;;0.60;0.60;;;;;;;4.82;78.86;96219.06;29373;224;63009;-63
2022/02/15 02:03:37;;;;;;;0.50;0.50;;;;;;;4.82;78.85;96216.38;29373;218;63005;-63
2022/02/15 02:05:47;;;;;;;0.60;0.60;;;;;;;4.83;78.78;96214.50;29373;241;63009;-64
2022/02/15 02:05:49;;;;;;;0.60;0.60;;;;;;;4.82;78.78;96220.94;29395;245;63009;-64
2022/02/15 02:06:20;;;;;;;0.52;0.52;;;;;;;4.82;79.08;96215.56;29373;274;63004;-62
2022/02/15 02:06:51;;;;;;;0.60;0.60;;;;;;;4.81;78.81;96219.34;29395;208;63008;-64
2022/02/15 02:07:22;;;;;;;0.50;0.50;;;;;;;4.80;78.78;96215.03;29373;545;63005;-64
2022/02/15 02:07:54;;;;;;;0.50;0.50;;;;;;;4.80;78.72;96218.53;29373;253;63009;-65
2022/02/15 02:08:30;;;;;;;0.50;0.50;;;;;;;4.81;79.21;96219.34;29395;309;63005;-63
2022/02/15 02:09:03;;;;;;;0.50;0.50;;;;;;;4.79;79.02;96222.28;29371;232;64009;-66
2022/02/15 02:09:34;;;;;;;0.60;0.60;;;;;;;4.80;78.87;96223.09;29373;320;63005;-65
2022/02/15 02:10:06;;;;;;;0.60;0.60;;;;;;;4.80;79.15;96218.53;29373;272;63017;-66
2022/02/15 02:10:38;;;;;;;0.50;0.50;;;;;;;4.81;78.88;96224.72;29371;239;64005;-64
2022/02/15 02:11:09;;;;;;;0.50;0.50;;;;;;;4.79;79.16;96221.50;29371;249;64009;-63
2022/02/15 02:11:40;;;;;;;0.50;0.50;;;;;;;4.79;79.23;96221.50;29395;227;63004;-61
2022/02/15 02:12:12;;;;;;;0.60;0.60;;;;;;;4.78;78.93;96219.87;29395;257;63009;-66
2022/02/15 02:12:43;;;;;;;0.50;0.50;;;;;;;4.79;78.97;96213.44;29395;282;63013;-64
2022/02/15 02:13:15;;;;;;;0.50;0.50;;;;;;;4.78;79.06;96218.00;29395;285;63009;-63
2022/02/15 02:13:46;;;;;;;0.50;0.50;;;;;;;4.80;78.98;96217.72;29395;210;63004;-65
2022/02/15 02:14:17;;;;;;;0.52;0.52;;;;;;;4.80;78.84;96215.03;29373;208;63008;-64
2022/02/15 02:15:09;;;;;;;0.60;0.60;;;;;;;4.80;78.66;96217.72;29395;197;63005;-65
2022/02/15 02:15:45;;;;;;;0.60;0.60;;;;;;;4.80;78.90;96217.72;29394;199;64009;-65
2022/02/15 02:16:28;;;;;;;0.60;0.60;;;;;;;4.79;78.97;96218.81;29373;236;63005;-64
2022/02/15 02:16:59;;;;;;;0.50;0.50;;;;;;;4.78;78.81;96218.00;29373;204;63009;-64
2022/02/15 02:17:30;;;;;;;0.60;0.60;;;;;;;4.78;79.13;96209.12;29395;216;63005;-65
2022/02/15 02:18:02;;;;;;;0.50;0.50;;;;;;;4.76;78.80;96217.47;29395;244;63009;-66
2022/02/15 02:18:33;;;;;;;0.50;0.50;;;;;;;4.76;78.88;96213.97;29395;218;63005;-66
2022/02/15 02:19:04;;;;;;;0.50;0.50;;;;;;;4.74;79.27;96213.44;29394;206;64009;-65
2022/02/15 02:19:39;;;;;;;0.60;0.60;;;;;;;4.74;79.18;96219.63;29395;217;63004;-64
2022/02/15 02:20:15;;;;;;;0.50;0.50;;;;;;;4.72;79.00;96221.78;29395;289;63013;-64
2022/02/15 02:20:47;;;;;;;0.60;0.60;;;;;;;4.73;79.24;96218.00;29395;233;63004;-66
2022/02/15 02:21:18;;;;;;;0.60;0.60;;;;;;;4.71;79.01;96220.97;29395;360;63009;-65
2022/02/15 02:21:49;;;;;;;0.50;0.50;;;;;;;4.71;79.36;96220.97;29373;208;63004;-66
2022/02/15 02:22:26;;;;;;;0.60;0.60;;;;;;;4.70;79.10;96219.34;29395;290;63014;-65
2022/02/15 02:22:57;;;;;;;0.60;0.60;;;;;;;4.69;79.36;96212.37;29395;212;63005;-66
2022/02/15 02:23:28;;;;;;;0.50;0.50;;;;;;;4.68;79.45;96218.81;29371;216;64009;-65
2022/02/15 02:24:00;;;;;;;0.60;0.60;;;;;;;4.68;79.56;96210.75;29373;199;63005;-64
2022/02/15 02:24:31;;;;;;;0.60;0.60;;;;;;;4.65;79.47;96213.97;29395;240;63009;-66
2022/02/15 02:25:03;;;;;;;0.50;0.50;;;;;;;4.66;79.24;96210.22;29395;241;63005;-63
2022/02/15 02:25:34;;;;;;;0.50;0.50;;;;;;;4.64;79.62;96215.06;29395;328;63009;-66
2022/02/15 02:26:06;;;;;;;0.60;0.60;;;;;;;4.63;79.52;96213.44;29373;227;63005;-65
2022/02/15 02:26:37;;;;;;;0.50;0.50;;;;;;;4.63;79.43;96212.63;29395;202;63009;-65
2022/02/15 02:27:15;;;;;;;0.50;0.50;;;;;;;4.68;79.26;96205.37;29395;254;63004;-63
2022/02/15 02:27:47;;;;;;;0.50;0.50;;;;;;;4.67;79.51;96211.03;29394;239;64009;-66
2022/02/15 02:28:19;;;;;;;0.50;0.50;;;;;;;4.66;79.33;96207.53;29395;202;63004;-65
2022/02/15 02:28:51;;;;;;;0.60;0.60;;;;;;;4.65;79.07;96211.28;29395;265;63009;-64
2022/02/15 02:29:24;;;;;;;0.50;0.50;;;;;;;4.70;79.30;96208.59;29373;245;63004;-63
2022/02/15 02:29:56;;;;;;;0.50;0.50;;;;;;;4.70;78.83;96208.59;29395;262;63009;-64
2022/02/15 02:30:27;;;;;;;0.50;0.50;;;;;;;4.67;79.18;96214.50;29395;224;63005;-64
2022/02/15 02:30:58;;;;;;;0.50;0.50;;;;;;;4.65;78.95;96203.22;29395;320;63009;-62
2022/02/15 02:31:32;;;;;;;0.50;0.50;;;;;;;4.65;78.93;96210.50;29394;240;64005;-64
2022/02/15 02:32:05;;;;;;;0.50;0.50;;;;;;;4.62;79.08;96209.16;29395;241;63009;-65
2022/02/15 02:32:36;;;;;;;0.50;0.50;;;;;;;4.62;79.42;96211.84;29371;325;64005;-63
2022/02/15 02:33:07;;;;;;;0.50;0.50;;;;;;;4.61;79.40;96210.22;29373;230;63009;-65
2022/02/15 02:33:39;;;;;;;0.60;0.60;;;;;;;4.61;79.54;96212.91;29394;222;64005;-65
2022/02/15 02:34:10;;;;;;;0.50;0.50;;;;;;;4.62;79.28;96206.47;29395;255;63018;-66
2022/02/15 02:34:41;;;;;;;0.50;0.50;;;;;;;4.61;79.23;96207.53;29395;228;63004;-67
2022/02/15 02:35:12;;;;;;;0.50;0.50;;;;;;;4.60;79.54;96208.59;29395;232;63009;-65